Saturday, November 18, 2017, 11:59 PM EST
Back to Local

KMFV, Melfa / Accomack Airport

Location: Melfa, VA, United States Lat: 37.65
Local Time: 11:59 PM EST ( 4:59 GMT) Lon: -75.767
Time Zone: US/Eastern Elev: 49 ft

Show me the last for .
Show Coded

Time T Td Feel RH Dir Speed Gust Alt SLP Vis Weather Sky Remarks
2017-11-18 23:30 62 55 - 78 190° 16 25 29.58 - 10 CLR None
2017-11-18 23:10 62 55 - 78 200° 14 23 29.59 - 10 SCT060 None
2017-11-18 22:50 62 55 - 77 190° 14 20 29.60 - 10 BKN060 None
2017-11-18 22:30 63 55 - 75 190° 16 23 29.61 - 10 SCT060 None
2017-11-18 22:10 64 54 - 72 200° 14 24 29.63 - 10 CLR None
2017-11-18 21:50 63 54 - 72 190° 14 22 29.63 - 10 CLR None
2017-11-18 21:30 62 53 - 73 200° 12 18 29.64 - 10 CLR None
2017-11-18 21:10 62 52 - 71 190° 14 22 29.64 - 10 CLR None
2017-11-18 20:50 61 52 - 70 190° 15 25 29.65 - 10 CLR None
2017-11-18 20:30 61 51 - 71 190° 17 23 29.65 - 10 CLR None
2017-11-18 20:10 60 52 - 73 190° 13 25 29.65 - 10 CLR None
2017-11-18 19:50 60 52 - 77 180° 15 22 29.66 - 10 CLR None
2017-11-18 19:30 59 52 - 78 190° 13 17 29.68 - 10 CLR None
2017-11-18 19:10 59 52 - 78 180° 13 23 29.68 - 10 CLR None
2017-11-18 18:50 59 52 - 77 180° 16 21 29.68 - 10 CLR 6-hr Min Temp (7pm): 57.7°F
6-hr Max Temp (7pm): 60.1°F
2017-11-18 18:30 60 52 - 74 180° 13 26 29.70 - 10 CLR None
2017-11-18 18:10 60 51 - 72 190° 15 23 29.70 - 10 CLR None
2017-11-18 17:50 59 51 - 74 190° 12 18 29.71 - 10 CLR None
2017-11-18 17:30 58 51 - 75 180° 12 17 29.71 - 10 CLR None
2017-11-18 17:10 58 50 - 75 180° 13 18 29.71 - 10 CLR None
2017-11-18 16:50 58 49 - 72 180° 12 18 29.72 - 10 CLR None
2017-11-18 16:30 59 49 - 69 180° 12 20 29.71 - 10 CLR None
2017-11-18 16:10 59 49 - 69 180° 10 17 29.72 - 10 CLR None
2017-11-18 15:50 59 49 - 69 190° 12 - 29.72 - 10 CLR None
2017-11-18 15:30 58 49 - 70 190° 10 17 29.73 - 10 CLR None
2017-11-18 15:10 58 48 - 70 190° 12 18 29.73 - 10 CLR None
2017-11-18 14:50 58 47 - 66 180° 12 20 29.74 - 10 CLR None
2017-11-18 14:30 58 47 - 65 190° 13 24 29.75 - 10 CLR None
2017-11-18 14:10 59 45 - 59 180° 14 18 29.76 - 10 CLR None
2017-11-18 13:50 60 43 - 54 180° 15 23 29.78 - 10 CLR None
2017-11-18 13:30 59 44 - 57 180° 10 16 29.79 - 10 CLR None
2017-11-18 13:10 58 41 - 52 180° 15 25 29.81 - 10 CLR None
2017-11-18 12:50 59 42 - 53 180° 14 23 29.82 - 10 CLR 6-hr Min Temp (1pm): 39.9°F
6-hr Max Temp (1pm): 61.2°F
2017-11-18 12:30 59 42 - 53 180° 15 22 29.84 - 10 CLR None
2017-11-18 12:10 61 38 - 41 180° 14 24 29.85 - 10 CLR None
2017-11-18 11:50 59 38 - 44 210° 13 22 29.87 - 10 CLR None
2017-11-18 11:30 59 38 - 45 200° 16 26 29.89 - 10 CLR None
2017-11-18 11:10 58 39 - 48 220° 13 18 29.91 - 10 CLR None
2017-11-18 10:50 57 39 - 51 220° 17 26 29.93 - 10 CLR None
2017-11-18 10:30 55 41 - 57 210° 20 25 29.94 - 10 CLR None
2017-11-18 10:10 55 40 - 55 220° 10 18 29.96 - 10 CLR None
2017-11-18 09:50 53 40 - 61 210° 10 17 29.97 - 10 CLR None
2017-11-18 09:30 51 40 - 65 190° 10 - 29.97 - 10 CLR None
2017-11-18 09:10 49 40 43 70 190° 9 18 29.98 - 10 CLR None
2017-11-18 08:50 49 39 45 69 200° 9 - 30.00 - 10 CLR None
2017-11-18 08:30 48 40 44 73 200° 8 - 30.01 - 10 CLR None
2017-11-18 08:10 46 39 42 75 190° 9 - 30.01 - 10 CLR None
2017-11-18 07:50 45 38 40 77 190° 9 - 30.01 - 10 CLR None
2017-11-18 07:30 43 37 38 80 200° 8 - 30.02 - 10 CLR None
2017-11-18 07:10 41 36 36 82 190° 8 - 30.03 - 10 CLR None
2017-11-18 06:50 39 35 34 83 180° 8 - 30.03 - 10 CLR 6-hr Min Temp (7am): 33.8°F
6-hr Max Temp (7am): 40.3°F
2017-11-18 06:30 39 35 34 83 190° 8 - 30.04 - 10 CLR None
2017-11-18 06:10 38 35 33 85 190° 7 - 30.05 - 10 CLR None
2017-11-18 05:50 40 35 35 81 200° 8 - 30.05 - 10 CLR None
2017-11-18 05:30 40 35 34 82 200° 9 - 30.06 - 10 CLR None
2017-11-18 05:10 38 35 33 86 200° 7 - 30.05 - 10 CLR None
2017-11-18 04:50 38 35 33 87 200° 7 - 30.05 - 10 CLR None
2017-11-18 04:30 38 35 33 89 200° 6 - 30.06 - 10 CLR None
2017-11-18 04:10 36 34 32 91 220° 5 - 30.06 - 10 CLR None
2017-11-18 03:50 35 33 29 91 190° 7 - 30.06 - 10 CLR None
2017-11-18 03:30 37 34 32 91 190° 6 - 30.06 - 10 CLR None
2017-11-18 03:10 36 34 31 90 180° 7 - 30.07 - 10 CLR None
2017-11-18 02:50 34 33 28 96 190° 7 - 30.09 - 10 CLR None
2017-11-18 02:30 36 35 31 95 210° 6 - 30.09 - 10 CLR None
2017-11-18 02:10 35 33 30 95 190° 6 - 30.09 - 10 CLR None
2017-11-18 01:50 35 34 31 95 200° 5 - 30.09 - 10 CLR None
2017-11-18 01:30 35 34 31 95 180° 5 - 30.09 - 10 CLR None
2017-11-18 01:10 34 33 30 94 180° 5 - 30.10 - 10 CLR None
2017-11-18 00:50 34 32 31 93 190° 3 - 30.11 - 10 CLR 6-hr Min Temp (1am): 32.5°F
6-hr Max Temp (1am): 39.0°F
2017-11-18 00:30 33 32 30 96 180° 3 - 30.12 - 10 CLR None
2017-11-18 00:10 34 33 29 95 190° 5 - 30.12 - 10 CLR None

Support USWX by starting your Amazon purchase here.